Time;durP1;ratioP1;P1;durP2;ratioP2;P2;SDS_P1;SDS_P2;PMS_P1;PMS_P2;Temp;Humidity;BMP_temperature;BMP_pressure;BME280_temperature;BME280_humidity;BME280_pressure;Samples;Min_cycle;Max_cycle;Signal;HPM_P1;HPM_P2
2023/01/08 00:02:16;;;;;;;41.95;25.48;;;7.50;99.90;;;;;;6079792;23;20034;-69
2023/01/08 00:04:42;;;;;;;36.92;20.73;;;7.50;99.90;;;;;;6081776;23;20018;-68
2023/01/08 00:07:07;;;;;;;37.13;20.55;;;7.50;99.90;;;;;;6082278;23;20210;-70
2023/01/08 00:09:33;;;;;;;33.95;17.83;;;7.50;99.90;;;;;;6082856;23;20567;-69
2023/01/08 00:11:58;;;;;;;32.15;17.33;;;7.50;99.90;;;;;;6083359;23;20608;-68
2023/01/08 00:14:24;;;;;;;32.35;17.38;;;7.50;99.90;;;;;;6082286;23;20002;-66
2023/01/08 00:16:50;;;;;;;33.78;19.20;;;7.40;99.90;;;;;;6082906;23;20030;-66
2023/01/08 00:19:17;;;;;;;33.55;17.77;;;7.40;99.90;;;;;;6077355;23;20504;-67
2023/01/08 00:21:42;;;;;;;30.95;17.73;;;7.40;99.90;;;;;;6081975;23;20010;-66
2023/01/08 00:24:08;;;;;;;31.65;17.42;;;7.40;99.90;;;;;;6082881;23;20369;-67
2023/01/08 00:26:34;;;;;;;33.13;17.40;;;7.50;99.90;;;;;;6081823;23;20011;-67
2023/01/08 00:29:00;;;;;;;33.28;17.73;;;7.50;99.90;;;;;;6079375;23;20018;-67
2023/01/08 00:31:25;;;;;;;30.67;16.50;;;7.50;99.90;;;;;;6082549;23;20006;-67
2023/01/08 00:33:51;;;;;;;28.42;16.55;;;7.50;99.90;;;;;;6084966;23;20605;-67
2023/01/08 00:36:18;;;;;;;31.08;16.90;;;7.50;99.90;;;;;;6084322;23;20421;-67
2023/01/08 00:38:45;;;;;;;32.13;17.45;;;7.40;99.90;;;;;;6080787;23;20010;-69
2023/01/08 00:41:12;;;;;;;32.47;18.05;;;7.50;99.90;;;;;;6082469;23;20546;-67
2023/01/08 00:43:38;;;;;;;31.30;16.25;;;7.50;99.90;;;;;;6082815;23;20022;-67
2023/01/08 00:46:04;;;;;;;30.85;16.92;;;7.40;99.90;;;;;;6083364;23;20463;-67
2023/01/08 00:48:30;;;;;;;28.25;15.93;;;7.40;99.90;;;;;;6083178;23;20010;-67
2023/01/08 00:50:56;;;;;;;34.70;17.85;;;7.40;99.90;;;;;;6076773;23;20002;-66
2023/01/08 00:53:22;;;;;;;32.38;17.13;;;7.40;99.90;;;;;;6076726;23;20081;-66
2023/01/08 00:55:48;;;;;;;28.42;16.33;;;7.40;99.90;;;;;;6079216;23;20028;-66
2023/01/08 00:58:13;;;;;;;30.27;17.45;;;7.50;99.90;;;;;;6078953;23;20006;-66
2023/01/08 01:00:39;;;;;;;31.77;16.58;;;7.50;99.90;;;;;;6079720;23;20384;-66
2023/01/08 01:03:05;;;;;;;32.90;17.90;;;7.50;99.90;;;;;;6081560;23;20017;-67
2023/01/08 01:05:31;;;;;;;29.95;17.48;;;7.50;99.90;;;;;;6080824;23;20011;-68
2023/01/08 01:07:57;;;;;;;30.00;17.08;;;7.50;99.90;;;;;;6080097;23;20014;-67
2023/01/08 01:10:23;;;;;;;29.15;16.17;;;7.50;99.90;;;;;;6081045;23;20010;-65
2023/01/08 01:12:49;;;;;;;28.00;15.55;;;7.50;99.90;;;;;;6079863;23;20018;-66
2023/01/08 01:15:17;;;;;;;30.40;15.90;;;7.50;99.90;;;;;;6078932;23;20002;-67
2023/01/08 01:17:44;;;;;;;32.10;17.10;;;7.50;99.90;;;;;;6080771;23;20021;-67
2023/01/08 01:20:14;;;;;;;31.70;16.38;;;7.40;99.90;;;;;;6080097;23;20002;-67
2023/01/08 01:22:41;;;;;;;28.48;16.00;;;7.40;99.90;;;;;;6082752;23;20175;-66
2023/01/08 01:25:07;;;;;;;29.63;15.88;;;7.40;99.90;;;;;;6078494;23;20018;-67
2023/01/08 01:27:32;;;;;;;32.10;16.90;;;7.40;99.90;;;;;;6080157;23;20568;-67
2023/01/08 01:29:58;;;;;;;34.83;16.67;;;7.50;99.90;;;;;;6080669;23;20011;-67
2023/01/08 01:32:24;;;;;;;31.13;17.20;;;7.50;99.90;;;;;;6083909;23;20496;-67
2023/01/08 01:34:49;;;;;;;31.77;17.10;;;7.50;99.90;;;;;;6080710;23;20009;-67
2023/01/08 01:37:15;;;;;;;27.85;15.77;;;7.60;99.90;;;;;;6081856;23;20036;-67
2023/01/08 01:39:47;;;;;;;32.80;17.98;;;7.50;99.90;;;;;;6080245;23;20073;-67
2023/01/08 01:42:38;;;;;;;31.48;17.50;;;7.50;99.90;;;;;;6081718;23;20034;-67
2023/01/08 01:45:03;;;;;;;31.73;15.77;;;7.50;99.90;;;;;;6081237;23;20019;-67
2023/01/08 01:47:38;;;;;;;29.20;16.40;;;7.50;99.90;;;;;;6081872;23;20002;-67
2023/01/08 01:50:38;;;;;;;31.38;16.88;;;7.50;99.90;;;;;;6081715;23;20021;-67
2023/01/08 01:53:20;;;;;;;33.92;17.67;;;7.50;99.90;;;;;;6058109;23;20021;-67
2023/01/08 01:55:46;;;;;;;28.13;16.27;;;7.50;99.90;;;;;;6079908;23;20006;-67
2023/01/08 01:58:15;;;;;;;31.42;17.05;;;7.50;99.90;;;;;;6077998;23;20006;-67
2023/01/08 02:00:42;;;;;;;31.27;17.27;;;7.50;99.90;;;;;;6082335;23;20017;-67
2023/01/08 02:03:11;;;;;;;29.75;17.30;;;7.40;99.90;;;;;;6084762;23;20072;-67
2023/01/08 02:05:56;;;;;;;34.97;18.80;;;7.40;99.90;;;;;;6074017;23;20036;-66
2023/01/08 02:09:03;;;;;;;33.10;17.58;;;7.40;99.90;;;;;;6079920;23;20010;-67
2023/01/08 02:11:34;;;;;;;57.05;33.35;;;7.40;99.90;;;;;;6071579;23;20436;-67
2023/01/08 02:14:26;;;;;;;72.90;51.80;;;7.20;99.90;;;;;;6079913;23;20025;-67
2023/01/08 02:17:02;;;;;;;35.22;20.35;;;7.20;99.90;;;;;;6081801;23;20002;-67
2023/01/08 02:19:33;;;;;;;32.05;18.25;;;7.30;99.90;;;;;;6076081;23;20435;-67
2023/01/08 02:22:13;;;;;;;35.72;20.45;;;7.40;99.90;;;;;;6081972;23;20006;-67
2023/01/08 02:24:55;;;;;;;34.03;18.85;;;7.40;99.90;;;;;;6081081;23;20015;-66
2023/01/08 02:27:24;;;;;;;38.42;19.20;;;7.40;99.90;;;;;;6082257;23;20077;-67
2023/01/08 02:29:52;;;;;;;40.50;24.38;;;7.40;99.90;;;;;;6082527;23;20061;-68
2023/01/08 02:32:21;;;;;;;35.58;19.95;;;7.40;99.90;;;;;;6081129;23;20037;-68
2023/01/08 02:34:46;;;;;;;33.10;17.60;;;7.40;99.90;;;;;;6081854;23;20452;-67
2023/01/08 02:37:12;;;;;;;29.83;18.00;;;7.50;99.90;;;;;;6083010;23;20002;-67
2023/01/08 02:39:59;;;;;;;33.15;18.88;;;7.50;99.90;;;;;;6082616;23;20006;-67
2023/01/08 02:42:30;;;;;;;32.45;18.13;;;7.50;99.90;;;;;;6081895;23;20269;-67
2023/01/08 02:45:17;;;;;;;33.95;17.50;;;7.50;99.90;;;;;;6081196;23;20041;-67
2023/01/08 02:47:52;;;;;;;36.22;18.20;;;7.50;99.90;;;;;;6082758;23;20006;-67
2023/01/08 02:50:17;;;;;;;31.70;16.98;;;7.50;99.90;;;;;;6082299;23;20093;-68
2023/01/08 02:53:03;;;;;;;32.45;18.10;;;7.50;99.90;;;;;;6082302;23;20081;-67
2023/01/08 02:55:32;;;;;;;39.10;18.35;;;7.50;99.90;;;;;;6079204;23;20436;-66
2023/01/08 02:57:58;;;;;;;31.90;18.20;;;7.40;99.90;;;;;;6082102;23;20018;-66
2023/01/08 03:00:24;;;;;;;34.88;19.50;;;7.40;99.90;;;;;;6085145;23;20404;-65
2023/01/08 03:03:00;;;;;;;41.83;24.23;;;7.40;99.90;;;;;;6084763;23;20017;-65
2023/01/08 03:05:27;;;;;;;35.58;19.50;;;7.40;99.90;;;;;;6078165;23;20010;-67
2023/01/08 03:07:54;;;;;;;40.35;18.85;;;7.50;99.90;;;;;;6082871;23;20006;-65
2023/01/08 03:10:23;;;;;;;51.90;28.70;;;7.50;99.90;;;;;;6079081;23;20010;-65
2023/01/08 03:13:15;;;;;;;60.25;33.72;;;7.50;99.90;;;;;;6082240;23;20137;-65
2023/01/08 03:15:54;;;;;;;45.83;23.92;;;7.40;99.90;;;;;;6086337;23;20066;-66
2023/01/08 03:18:28;;;;;;;40.33;24.10;;;7.50;99.90;;;;;;6082151;23;20025;-65
2023/01/08 03:20:54;;;;;;;39.70;24.50;;;7.50;99.90;;;;;;6085722;23;20010;-66
2023/01/08 03:23:22;;;;;;;33.00;18.40;;;7.40;99.90;;;;;;6082273;23;20280;-66
2023/01/08 03:25:48;;;;;;;53.20;25.67;;;7.40;99.90;;;;;;6085676;23;20024;-65
2023/01/08 03:28:22;;;;;;;55.13;36.40;;;7.40;99.90;;;;;;6086258;23;20105;-65
2023/01/08 03:30:49;;;;;;;34.03;19.58;;;7.50;99.90;;;;;;6085205;23;20687;-66
2023/01/08 03:33:16;;;;;;;39.42;20.13;;;7.50;99.90;;;;;;6085081;23;20516;-66
2023/01/08 03:35:47;;;;;;;35.30;21.75;;;7.50;99.90;;;;;;6083272;23;20010;-65
2023/01/08 03:38:55;;;;;;;38.65;21.55;;;7.50;99.90;;;;;;6083977;23;20010;-66
2023/01/08 03:41:23;;;;;;;28.70;18.13;;;7.40;99.90;;;;;;5968574;24;20469;-66
2023/01/08 03:43:49;;;;;;;32.95;17.83;;;7.50;99.90;;;;;;6067768;23;20010;-66
2023/01/08 03:46:27;;;;;;;31.48;17.13;;;7.50;99.90;;;;;;6085858;23;20006;-65
2023/01/08 03:48:54;;;;;;;33.97;18.90;;;7.40;99.90;;;;;;6083488;23;20011;-66
2023/01/08 03:51:19;;;;;;;35.42;21.58;;;7.40;99.90;;;;;;6058748;23;20032;-66
2023/01/08 03:53:46;;;;;;;36.58;18.95;;;7.40;99.90;;;;;;6077556;23;20011;-66
2023/01/08 03:56:12;;;;;;;31.10;17.73;;;7.40;99.90;;;;;;6079978;23;20085;-65
2023/01/08 03:58:37;;;;;;;32.65;18.40;;;7.40;99.90;;;;;;6080559;23;20093;-65
2023/01/08 04:01:03;;;;;;;31.58;17.40;;;7.40;99.90;;;;;;6082489;23;20503;-65
2023/01/08 04:03:28;;;;;;;31.58;18.70;;;7.40;99.90;;;;;;6082299;23;20089;-65
2023/01/08 04:05:54;;;;;;;30.65;17.35;;;7.40;99.90;;;;;;6084362;23;20020;-65
2023/01/08 04:08:20;;;;;;;32.33;18.10;;;7.40;99.90;;;;;;6085759;23;20002;-65
2023/01/08 04:10:45;;;;;;;33.90;17.98;;;7.50;99.90;;;;;;6082831;23;20013;-65
2023/01/08 04:13:11;;;;;;;31.50;17.83;;;7.50;99.90;;;;;;6085000;23;20007;-65
2023/01/08 04:15:37;;;;;;;33.55;19.35;;;7.40;99.90;;;;;;6085594;23;20021;-65
2023/01/08 04:18:02;;;;;;;35.33;17.70;;;7.40;99.90;;;;;;6085247;23;19999;-65
2023/01/08 04:20:28;;;;;;;35.50;18.65;;;7.40;99.90;;;;;;6085075;23;20014;-65
2023/01/08 04:22:53;;;;;;;34.90;18.17;;;7.40;99.90;;;;;;6085857;23;20627;-65
2023/01/08 04:25:19;;;;;;;35.75;19.17;;;7.40;99.90;;;;;;6082901;23;20010;-65
2023/01/08 04:27:45;;;;;;;31.52;17.98;;;7.40;99.90;;;;;;6084021;23;20022;-65
2023/01/08 04:30:10;;;;;;;31.35;17.17;;;7.50;99.90;;;;;;6085457;23;20002;-65
2023/01/08 04:32:36;;;;;;;37.55;18.48;;;7.50;99.90;;;;;;6083496;23;20030;-65
2023/01/08 04:35:02;;;;;;;36.53;18.67;;;7.50;99.90;;;;;;6085778;23;20433;-66
2023/01/08 04:37:28;;;;;;;34.97;18.33;;;7.50;99.90;;;;;;6085663;23;20549;-65
2023/01/08 04:39:53;;;;;;;34.10;19.05;;;7.50;99.90;;;;;;6085402;23;20006;-65
2023/01/08 04:42:19;;;;;;;41.28;20.38;;;7.40;99.90;;;;;;6081435;23;19998;-65
2023/01/08 04:44:45;;;;;;;41.28;20.42;;;7.40;99.90;;;;;;6082891;23;20018;-65
2023/01/08 04:47:10;;;;;;;39.83;20.00;;;7.50;99.90;;;;;;6084637;23;20056;-65
2023/01/08 04:49:36;;;;;;;38.35;20.35;;;7.50;99.90;;;;;;6082466;23;20596;-65
2023/01/08 04:52:01;;;;;;;35.90;19.98;;;7.50;99.90;;;;;;6085090;23;20405;-66
2023/01/08 04:54:27;;;;;;;47.55;22.77;;;7.50;99.90;;;;;;6083243;23;20018;-65
2023/01/08 04:56:53;;;;;;;44.97;21.55;;;7.50;99.90;;;;;;6084890;23;20037;-66
2023/01/08 04:59:19;;;;;;;47.05;21.13;;;7.40;99.90;;;;;;6084922;23;20017;-66
2023/01/08 05:01:44;;;;;;;38.25;20.85;;;7.30;99.90;;;;;;6084469;23;20006;-66
2023/01/08 05:04:10;;;;;;;37.58;20.20;;;7.30;99.90;;;;;;6083150;23;20014;-66
2023/01/08 05:06:36;;;;;;;43.10;22.23;;;7.40;99.90;;;;;;6083857;23;20012;-66
2023/01/08 05:09:02;;;;;;;46.20;22.25;;;7.40;99.90;;;;;;6084046;23;20061;-66
2023/01/08 05:11:28;;;;;;;48.95;23.65;;;7.40;99.90;;;;;;6084904;23;20014;-66
2023/01/08 05:13:54;;;;;;;44.17;21.20;;;7.50;99.90;;;;;;6083281;23;20019;-66
2023/01/08 05:16:20;;;;;;;50.45;22.38;;;7.50;99.90;;;;;;6085948;23;20007;-66
2023/01/08 05:18:46;;;;;;;49.38;26.05;;;7.40;99.90;;;;;;6085715;23;20054;-66
2023/01/08 05:21:12;;;;;;;54.53;22.45;;;7.50;99.90;;;;;;6085707;23;19999;-66
2023/01/08 05:23:38;;;;;;;56.10;24.02;;;7.50;99.90;;;;;;6081040;23;20026;-66
2023/01/08 05:26:05;;;;;;;53.33;23.85;;;7.40;99.90;;;;;;6082251;23;20108;-66
2023/01/08 05:28:31;;;;;;;49.60;22.80;;;7.40;99.90;;;;;;6084981;23;20014;-66
2023/01/08 05:30:57;;;;;;;48.55;23.73;;;7.40;99.90;;;;;;6084995;23;20389;-65
2023/01/08 05:33:24;;;;;;;54.45;24.17;;;7.30;99.90;;;;;;6085282;23;20046;-66
2023/01/08 05:35:50;;;;;;;58.42;23.13;;;7.40;99.90;;;;;;6086564;23;20010;-66
2023/01/08 05:40:41;;;;;;;66.53;25.83;;;7.30;99.90;;;;;;4888581;28;20422;-66
2023/01/08 05:43:07;;;;;;;63.13;23.88;;;7.20;99.90;;;;;;4903807;28;20038;-66
2023/01/08 05:45:32;;;;;;;55.65;24.80;;;7.20;99.90;;;;;;4921750;28;20114;-66
2023/01/08 05:47:59;;;;;;;58.13;23.50;;;7.20;99.90;;;;;;4925575;28;20070;-66
2023/01/08 05:50:25;;;;;;;57.65;24.42;;;7.30;99.90;;;;;;4937634;28;20019;-66
2023/01/08 05:52:51;;;;;;;59.63;22.83;;;7.40;99.90;;;;;;4936842;28;20098;-66
2023/01/08 05:55:16;;;;;;;61.03;23.08;;;7.40;99.90;;;;;;4935645;28;20039;-66
2023/01/08 05:57:42;;;;;;;49.28;23.13;;;7.40;99.90;;;;;;4935594;28;20096;-66
2023/01/08 06:00:09;;;;;;;50.03;22.90;;;7.40;99.90;;;;;;4937798;28;20509;-66
2023/01/08 06:02:35;;;;;;;56.88;22.75;;;7.40;99.90;;;;;;4951593;28;20023;-66
2023/01/08 06:05:00;;;;;;;54.13;22.52;;;7.50;99.90;;;;;;4936062;28;20616;-67
2023/01/08 06:07:28;;;;;;;44.55;22.05;;;7.50;99.90;;;;;;4940672;28;20529;-66
2023/01/08 06:09:54;;;;;;;43.85;22.40;;;7.50;99.90;;;;;;4939454;28;21297;-66
2023/01/08 06:12:20;;;;;;;42.67;23.42;;;7.50;99.90;;;;;;4941152;28;20122;-66
2023/01/08 06:14:45;;;;;;;42.67;21.63;;;7.50;99.90;;;;;;4938050;28;20690;-66
2023/01/08 06:17:11;;;;;;;41.45;23.83;;;7.50;99.90;;;;;;4938010;28;20048;-66
2023/01/08 06:19:38;;;;;;;42.63;21.88;;;7.50;99.90;;;;;;4943863;28;20031;-66
2023/01/08 06:22:04;;;;;;;40.50;22.17;;;7.50;99.90;;;;;;4937248;28;20051;-67
2023/01/08 06:24:30;;;;;;;39.00;21.48;;;7.50;99.90;;;;;;4937106;28;20046;-66
2023/01/08 06:26:56;;;;;;;37.88;22.42;;;7.50;99.90;;;;;;4937195;28;20035;-66
2023/01/08 06:29:22;;;;;;;37.15;21.52;;;7.60;99.90;;;;;;4933055;28;20090;-66
2023/01/08 06:31:48;;;;;;;35.90;21.48;;;7.60;99.90;;;;;;4938559;28;20034;-67
2023/01/08 06:34:14;;;;;;;36.30;20.67;;;7.60;99.90;;;;;;4937546;28;20036;-67
2023/01/08 06:36:40;;;;;;;35.03;20.60;;;7.60;99.90;;;;;;4938963;28;20034;-66
2023/01/08 06:39:06;;;;;;;36.13;21.80;;;7.60;99.90;;;;;;4941679;28;20054;-66
2023/01/08 06:41:32;;;;;;;40.83;22.33;;;7.60;99.90;;;;;;4956161;28;20031;-66
2023/01/08 06:43:58;;;;;;;36.05;22.15;;;7.60;99.90;;;;;;4956515;28;20034;-67
2023/01/08 06:46:24;;;;;;;35.00;21.67;;;7.60;99.90;;;;;;4958261;28;20132;-66
2023/01/08 06:48:49;;;;;;;33.75;20.95;;;7.70;99.90;;;;;;4957252;28;20126;-66
2023/01/08 06:51:15;;;;;;;32.08;20.98;;;7.60;99.90;;;;;;4946877;28;20042;-66
2023/01/08 06:53:41;;;;;;;37.67;22.10;;;7.70;99.90;;;;;;4948452;28;20440;-66
2023/01/08 06:56:08;;;;;;;37.22;22.38;;;7.80;99.90;;;;;;4941068;28;20757;-66
2023/01/08 06:58:34;;;;;;;34.03;21.80;;;7.80;99.90;;;;;;4942986;28;20447;-66
2023/01/08 07:01:00;;;;;;;32.10;21.98;;;7.80;99.90;;;;;;4941242;28;20747;-66
2023/01/08 07:03:25;;;;;;;37.47;21.63;;;7.80;99.90;;;;;;4944403;28;20031;-66
2023/01/08 07:05:51;;;;;;;37.13;23.00;;;7.80;99.90;;;;;;4944446;28;20421;-67
2023/01/08 07:08:17;;;;;;;34.38;21.42;;;7.80;99.90;;;;;;4944668;28;20503;-67
2023/01/08 07:10:43;;;;;;;27.73;19.45;;;7.80;99.90;;;;;;4938768;28;20035;-67
2023/01/08 07:13:11;;;;;;;30.23;20.90;;;7.80;99.90;;;;;;4942229;28;20037;-67
2023/01/08 07:15:41;;;;;;;31.02;20.75;;;7.80;99.90;;;;;;4943035;28;20039;-66
2023/01/08 07:18:08;;;;;;;29.35;21.08;;;7.80;99.90;;;;;;4942143;28;20551;-67
2023/01/08 07:20:34;;;;;;;30.70;20.55;;;7.90;99.90;;;;;;4944242;28;20047;-67
2023/01/08 07:23:04;;;;;;;35.40;22.25;;;7.80;99.90;;;;;;4941843;28;20223;-67
2023/01/08 07:25:31;;;;;;;35.28;22.95;;;7.80;99.90;;;;;;4939848;28;20559;-66
2023/01/08 07:27:57;;;;;;;32.13;20.63;;;7.80;99.90;;;;;;4940918;28;20035;-67
2023/01/08 07:30:23;;;;;;;30.30;20.65;;;7.80;99.90;;;;;;4942932;28;20380;-65
2023/01/08 07:32:49;;;;;;;33.33;22.25;;;7.80;99.90;;;;;;4946640;28;20034;-65
2023/01/08 07:35:14;;;;;;;33.58;22.63;;;7.80;99.90;;;;;;4949649;28;20026;-65
2023/01/08 07:37:41;;;;;;;33.10;23.45;;;7.80;99.90;;;;;;4948212;28;20107;-65
2023/01/08 07:40:08;;;;;;;33.80;21.67;;;7.80;99.90;;;;;;4943728;28;20083;-65
2023/01/08 07:42:34;;;;;;;31.45;23.23;;;7.80;99.90;;;;;;4947203;28;20035;-67
2023/01/08 07:44:59;;;;;;;28.83;21.48;;;7.80;99.90;;;;;;4944845;28;20082;-66
2023/01/08 07:47:25;;;;;;;41.33;28.23;;;7.80;99.90;;;;;;4944391;28;20042;-66
2023/01/08 07:49:51;;;;;;;33.05;23.08;;;7.90;99.90;;;;;;4943126;28;20022;-67
2023/01/08 07:52:16;;;;;;;25.95;19.73;;;7.90;99.90;;;;;;4946292;28;20027;-66
2023/01/08 07:54:42;;;;;;;29.70;22.02;;;7.90;99.90;;;;;;4940741;28;20855;-67
2023/01/08 07:57:07;;;;;;;33.83;21.65;;;7.80;99.90;;;;;;4940006;28;20030;-68
2023/01/08 07:59:33;;;;;;;29.15;21.95;;;7.80;99.90;;;;;;4944399;28;20086;-68
2023/01/08 08:01:59;;;;;;;33.08;20.85;;;7.80;99.90;;;;;;4939259;28;20405;-67
2023/01/08 08:04:24;;;;;;;33.17;21.10;;;7.80;99.90;;;;;;4942640;28;20558;-66
2023/01/08 08:06:50;;;;;;;28.67;20.58;;;7.80;99.90;;;;;;4939045;28;20035;-65
2023/01/08 08:09:16;;;;;;;29.40;20.65;;;7.80;99.90;;;;;;4942503;28;20094;-65
2023/01/08 08:11:41;;;;;;;28.10;21.23;;;7.90;99.90;;;;;;4939479;28;20579;-65
2023/01/08 08:14:07;;;;;;;29.50;21.08;;;7.90;99.90;;;;;;4940414;28;20515;-64
2023/01/08 08:16:33;;;;;;;28.67;21.33;;;7.90;99.90;;;;;;4938754;28;20067;-65
2023/01/08 08:18:59;;;;;;;29.23;21.88;;;7.90;99.90;;;;;;4944767;28;20039;-65
2023/01/08 08:21:25;;;;;;;25.73;19.77;;;7.90;99.90;;;;;;4943840;28;20122;-65
2023/01/08 08:23:51;;;;;;;27.80;20.67;;;7.80;99.90;;;;;;4940758;28;20395;-65
2023/01/08 08:26:17;;;;;;;37.25;23.50;;;7.80;99.90;;;;;;4941036;28;20031;-65
2023/01/08 08:28:42;;;;;;;28.67;22.30;;;7.80;99.90;;;;;;4943382;28;20822;-65
2023/01/08 08:31:08;;;;;;;29.02;21.85;;;7.80;99.90;;;;;;4936027;28;20130;-64
2023/01/08 08:33:33;;;;;;;29.60;22.45;;;7.80;99.90;;;;;;4940155;28;20046;-65
2023/01/08 08:35:59;;;;;;;31.83;24.33;;;7.80;99.90;;;;;;4938932;28;20389;-65
2023/01/08 08:38:25;;;;;;;28.65;22.45;;;7.90;99.90;;;;;;4934611;28;20186;-65
2023/01/08 08:40:51;;;;;;;28.95;20.65;;;7.90;99.90;;;;;;4935115;28;20034;-65
2023/01/08 08:43:17;;;;;;;28.77;21.88;;;7.90;99.90;;;;;;4935525;28;20030;-66
2023/01/08 08:45:43;;;;;;;27.00;20.75;;;7.90;99.90;;;;;;4934313;28;20046;-65
2023/01/08 08:48:10;;;;;;;26.73;21.73;;;7.90;99.90;;;;;;4940232;28;20035;-66
2023/01/08 08:50:38;;;;;;;32.13;24.13;;;7.90;99.90;;;;;;4942735;28;20039;-65
2023/01/08 08:53:05;;;;;;;24.20;19.15;;;7.90;99.90;;;;;;4936041;28;20109;-65
2023/01/08 08:55:32;;;;;;;27.42;21.38;;;7.90;99.90;;;;;;4935445;28;20035;-65
2023/01/08 08:58:06;;;;;;;26.98;21.70;;;7.80;99.90;;;;;;4921728;28;20038;-65
2023/01/08 09:00:32;;;;;;;29.75;22.65;;;7.70;99.90;;;;;;4936778;28;20503;-65
2023/01/08 09:02:58;;;;;;;27.55;19.23;;;7.70;99.90;;;;;;4934160;28;20416;-65
2023/01/08 09:05:24;;;;;;;25.98;20.20;;;7.70;99.90;;;;;;4936530;28;20031;-65
2023/01/08 09:07:50;;;;;;;25.92;19.00;;;7.70;99.90;;;;;;4940304;28;20043;-65
2023/01/08 09:10:15;;;;;;;25.85;19.48;;;7.70;99.90;;;;;;4943732;28;20038;-65
2023/01/08 09:12:41;;;;;;;27.38;20.13;;;7.70;99.90;;;;;;4946116;28;20052;-65
2023/01/08 09:15:07;;;;;;;25.75;20.77;;;7.70;99.90;;;;;;4931077;28;20035;-65
2023/01/08 09:17:35;;;;;;;29.13;20.20;;;7.80;99.90;;;;;;4936281;28;20106;-65
2023/01/08 09:20:03;;;;;;;27.67;21.08;;;7.80;99.90;;;;;;4943564;28;20105;-65
2023/01/08 09:22:28;;;;;;;32.33;22.88;;;7.80;99.90;;;;;;4940797;28;20046;-65
2023/01/08 09:24:54;;;;;;;39.67;23.77;;;7.80;99.90;;;;;;4941882;28;20035;-66
2023/01/08 09:27:20;;;;;;;53.83;27.30;;;7.80;99.90;;;;;;4939125;28;20079;-65
2023/01/08 09:29:45;;;;;;;34.60;22.73;;;7.70;99.90;;;;;;4939852;28;20031;-65
2023/01/08 09:32:11;;;;;;;31.30;23.05;;;7.70;99.90;;;;;;4931523;28;20043;-65
2023/01/08 09:34:37;;;;;;;57.28;38.30;;;7.80;99.90;;;;;;4938618;28;20042;-66
2023/01/08 09:37:03;;;;;;;42.45;29.58;;;7.70;99.90;;;;;;4931854;28;20041;-65
2023/01/08 09:39:29;;;;;;;35.58;26.88;;;7.70;99.90;;;;;;4932561;28;20416;-67
2023/01/08 09:41:57;;;;;;;41.83;29.63;;;7.60;99.90;;;;;;4936401;28;20031;-65
2023/01/08 09:44:26;;;;;;;32.53;23.15;;;7.60;99.90;;;;;;4939227;28;20027;-67
2023/01/08 09:46:54;;;;;;;31.85;23.42;;;7.60;99.90;;;;;;4933848;28;20038;-67
2023/01/08 09:49:29;;;;;;;31.90;22.67;;;7.60;99.90;;;;;;4928433;28;20031;-66
2023/01/08 09:51:54;;;;;;;31.17;21.98;;;7.70;99.90;;;;;;4920785;28;20055;-65
2023/01/08 09:54:25;;;;;;;31.48;23.42;;;7.70;99.90;;;;;;4920460;28;20049;-65
2023/01/08 09:56:51;;;;;;;35.22;26.58;;;7.70;99.90;;;;;;4929391;28;20036;-65
2023/01/08 09:59:17;;;;;;;29.25;22.33;;;7.60;99.90;;;;;;4936298;28;20051;-66
2023/01/08 10:01:44;;;;;;;32.33;24.23;;;7.60;99.90;;;;;;4941513;28;20051;-65
2023/01/08 10:04:20;;;;;;;28.90;20.65;;;7.60;99.90;;;;;;4933692;28;20027;-65
2023/01/08 10:06:52;;;;;;;29.33;20.73;;;7.60;99.90;;;;;;4940791;28;20035;-65
2023/01/08 10:09:23;;;;;;;28.95;20.05;;;7.60;99.90;;;;;;4932807;28;20059;-65
2023/01/08 10:11:50;;;;;;;33.10;21.33;;;7.60;99.90;;;;;;4936250;28;20028;-65
2023/01/08 10:14:23;;;;;;;29.80;20.25;;;7.60;99.90;;;;;;4935084;28;20043;-65
2023/01/08 10:16:54;;;;;;;33.72;23.65;;;7.70;99.90;;;;;;4926558;28;20083;-66
2023/01/08 10:19:20;;;;;;;36.92;23.38;;;7.70;99.90;;;;;;4913939;28;20035;-66
2023/01/08 10:21:46;;;;;;;30.15;21.73;;;7.70;99.90;;;;;;4922128;28;20879;-65
2023/01/08 10:24:12;;;;;;;33.03;23.75;;;7.70;99.90;;;;;;4935263;28;20106;-66
2023/01/08 10:26:38;;;;;;;35.75;24.88;;;7.70;99.90;;;;;;4941516;28;20534;-66
2023/01/08 10:29:13;;;;;;;29.85;21.15;;;7.70;99.90;;;;;;4936716;28;20122;-67
2023/01/08 10:31:57;;;;;;;38.63;27.35;;;7.70;99.90;;;;;;4928166;28;20055;-65
2023/01/08 10:34:31;;;;;;;38.97;29.35;;;7.80;99.90;;;;;;4921193;28;20034;-65
2023/01/08 10:36:57;;;;;;;35.90;27.00;;;7.80;99.90;;;;;;4926809;28;20515;-64
2023/01/08 10:39:27;;;;;;;33.97;24.42;;;7.80;99.90;;;;;;4930858;28;20051;-65
2023/01/08 10:41:56;;;;;;;35.20;24.90;;;7.90;99.90;;;;;;4926424;28;20035;-64
2023/01/08 10:44:24;;;;;;;31.75;22.77;;;7.80;99.90;;;;;;4911535;28;20126;-65
2023/01/08 10:46:54;;;;;;;32.42;23.98;;;7.80;99.90;;;;;;4933854;28;20035;-65
2023/01/08 10:49:35;;;;;;;31.30;22.27;;;7.90;99.90;;;;;;4927651;28;20109;-68
2023/01/08 10:52:01;;;;;;;28.33;21.02;;;8.00;99.90;;;;;;4923559;28;20963;-68
2023/01/08 10:54:40;;;;;;;27.83;20.60;;;7.90;99.90;;;;;;4917378;28;20046;-67
2023/01/08 10:57:26;;;;;;;27.25;20.10;;;7.90;99.90;;;;;;4920656;28;20658;-68
2023/01/08 10:59:52;;;;;;;27.90;20.90;;;7.90;99.90;;;;;;4930479;28;20047;-67
2023/01/08 11:02:27;;;;;;;29.45;20.40;;;8.00;99.90;;;;;;4920863;28;20200;-67
2023/01/08 11:04:53;;;;;;;26.90;19.27;;;8.00;99.90;;;;;;4923453;28;20512;-68
2023/01/08 11:07:22;;;;;;;29.83;20.58;;;8.00;99.90;;;;;;4925359;28;20031;-66
2023/01/08 11:09:50;;;;;;;28.30;20.23;;;7.90;99.90;;;;;;4922368;28;20038;-67
2023/01/08 11:12:31;;;;;;;30.77;20.65;;;7.90;99.90;;;;;;4924063;28;20125;-68
2023/01/08 11:14:57;;;;;;;31.02;20.60;;;8.00;99.90;;;;;;4922564;28;20034;-68
2023/01/08 11:17:27;;;;;;;31.15;19.88;;;7.80;99.90;;;;;;4928966;28;20054;-67
2023/01/08 11:19:53;;;;;;;29.40;21.48;;;7.80;99.90;;;;;;4929108;28;20035;-68
2023/01/08 11:22:24;;;;;;;29.00;20.70;;;7.70;99.90;;;;;;4928718;28;20047;-70
2023/01/08 11:24:52;;;;;;;27.73;20.17;;;7.80;99.90;;;;;;4928674;28;20091;-67
2023/01/08 11:27:39;;;;;;;29.35;21.23;;;7.80;99.90;;;;;;4931051;28;20024;-67
2023/01/08 11:30:16;;;;;;;27.15;20.00;;;7.80;99.90;;;;;;4935050;28;20035;-68
2023/01/08 11:32:54;;;;;;;30.02;20.30;;;7.80;99.90;;;;;;4935629;28;20047;-68
2023/01/08 11:35:25;;;;;;;33.35;24.95;;;7.70;99.90;;;;;;4931819;28;20100;-68
2023/01/08 11:37:51;;;;;;;30.05;21.10;;;7.70;99.90;;;;;;4930411;28;20042;-68
2023/01/08 11:40:25;;;;;;;33.28;22.67;;;7.80;99.90;;;;;;4926994;28;20051;-68
2023/01/08 11:43:15;;;;;;;30.17;22.50;;;7.80;99.90;;;;;;4931724;28;20031;-74
2023/01/08 11:46:09;;;;;;;30.50;22.88;;;7.90;99.90;;;;;;4934675;28;21172;-68
2023/01/08 11:48:51;;;;;;;27.73;22.73;;;8.10;99.90;;;;;;4916354;28;20552;-68
2023/01/08 11:51:32;;;;;;;31.75;23.10;;;8.10;99.90;;;;;;4928064;28;20839;-68
2023/01/08 11:54:01;;;;;;;31.02;22.13;;;8.00;99.90;;;;;;4942748;28;20085;-69
2023/01/08 11:56:48;;;;;;;29.75;20.77;;;7.90;99.90;;;;;;4934761;28;20558;-68
2023/01/08 11:59:51;;;;;;;30.40;22.20;;;7.90;99.90;;;;;;4930709;28;20043;-69
2023/01/08 12:02:51;;;;;;;31.92;22.02;;;7.90;99.90;;;;;;4919952;28;20642;-69
2023/01/08 12:05:22;;;;;;;32.45;23.13;;;7.80;99.90;;;;;;4927574;28;20050;-69
2023/01/08 12:07:59;;;;;;;34.38;23.25;;;7.80;99.90;;;;;;4930140;28;20023;-68
2023/01/08 12:10:52;;;;;;;32.08;23.13;;;7.70;99.90;;;;;;4917993;28;20035;-68
2023/01/08 12:13:54;;;;;;;33.42;22.02;;;7.70;99.90;;;;;;4930584;28;20034;-68
2023/01/08 12:16:48;;;;;;;35.20;24.88;;;7.80;99.90;;;;;;4923895;28;20050;-69
2023/01/08 12:19:46;;;;;;;31.75;23.48;;;7.90;99.90;;;;;;4915912;28;20139;-69
2023/01/08 12:22:34;;;;;;;29.02;20.60;;;7.90;99.90;;;;;;4919042;28;20049;-65
2023/01/08 12:25:19;;;;;;;27.23;20.55;;;8.00;99.90;;;;;;4941602;28;20031;-65
2023/01/08 12:28:11;;;;;;;27.67;19.88;;;8.00;99.90;;;;;;4928256;28;20700;-65
2023/01/08 12:30:55;;;;;;;27.35;20.13;;;8.00;99.90;;;;;;4926662;28;20031;-65
2023/01/08 12:33:38;;;;;;;27.30;20.08;;;8.00;99.90;;;;;;4925197;28;20041;-65
2023/01/08 12:36:21;;;;;;;26.38;19.90;;;8.00;99.90;;;;;;4922957;28;20503;-65
2023/01/08 12:38:54;;;;;;;28.08;20.27;;;8.00;99.90;;;;;;4924228;28;20039;-65
2023/01/08 12:41:21;;;;;;;26.55;19.38;;;8.00;99.90;;;;;;4926446;28;20039;-65
2023/01/08 12:43:53;;;;;;;29.33;20.40;;;8.00;99.90;;;;;;4931040;28;20031;-65
2023/01/08 12:46:21;;;;;;;27.58;19.65;;;8.00;99.90;;;;;;4930403;28;21300;-65
2023/01/08 12:48:50;;;;;;;26.52;20.40;;;8.00;99.90;;;;;;4934068;28;20035;-65
2023/01/08 12:51:23;;;;;;;32.47;21.95;;;7.90;99.90;;;;;;4936381;28;20030;-65